My Meet Scores
Chloe Varga, Chelsea Piers Connecticut - MyMeetScores.com
Top100 | Top Teams | Upcoming Meets | Completed Meets | Latest | Add Scores | Help| Support | Bookmark and Share

Chloe Varga, Chelsea Piers Connecticut
Personal Bests
LevelVault BarsBeamFloorAA
39.0259.000 8.5759.00035.425
49.0507.700 9.3009.12534.450
58.2500.000 7.5508.15023.950
XG9.5009.550 9.5009.65037.425
Meet Scores
Date Meet Team Session Level Division Vault Bars Beam Floor AA
2020-03-08 ABC Shoreline Local Qualifier - March 8th 2020 Chelsea Piers Connecticut 4 XG Ch 9-11 9.500 4* 8.700 38 8.750 41T 9.200 26T 36.150 26T
2020-02-28 Long Island Classic Chelsea Piers Connecticut 7 XG Junior 9.175 1 8.850 4 9.025 3 9.475 3T 36.525 2
2020-02-21 Team Challenge 2020 Chelsea Piers Connecticut R8 XG Child 9.225 2 9.350 4 9.500 3 9.350 4 37.425 3
2020-02-15 Chelsea Piers Winter Challenge Chelsea Piers Connecticut F3 XG Younger 9.300 1 9.550 4T 8.650 13 9.650 1 37.150 4T
2020-01-24 2020 Kinetic Kids Invitational Chelsea Piers Connecticut 7 XG Jr A 8.900 8 8.925 7 8.600 7 8.900 7T 35.325 7
2019-02-16 Chelsea Piers Winter Challenge Chelsea Piers Connecticut C8 5 Younger 8.250 12 0.000 16T 7.550 16 8.150 13 23.950 16
2019-02-01 State Level 4&5 Chelsea Piers Connecticut 3 4 10B 8.600 55T 7.550 56 9.200 22T 9.100 19T 34.450 44
2019-01-25 T.D.N.I. Chelsea Piers Connecticut A15 4 C 9.050 5 7.050 11 9.050 7 9.125 4 34.275 10
2019-01-10 Little Boston Invitational Chelsea Piers Connecticut B08 4 JR 8.050 11 7.700 17 8.800 8 9.100 9 33.650 13
2018-12-08 American Gymnastics Invitational Chelsea Piers Connecticut 5 4 Jr A 8.350 6T 6.300 10 9.300 4 9.050 4 33.000 8
2018-11-17 2018 Connecticut Judge's Cup Chelsea Piers Connecticut 6 4 10 yrs. 8.850 17T 6.750 58 8.200 38T 8.750 31* 32.550 46T
2018-11-02 Muriel Grossfeld Invitational Chelsea Piers Connecticut 1 4 Jr B 8.000 12T 0.000 20 9.200 5 8.950 6 26.150 18
2018-03-02 Starlight Invitational Chelsea Piers Connecticut 10 4 Division 1 8.750 9 7.650 14 9.100 7 8.925 8 34.425 11
2018-02-16 Chelsea Piers Winter Challenge Chelsea Piers Connecticut F-4 4 Junior 8.825 14 7.050 20 8.600 15 8.850 14T 33.325 18
2018-02-03 Level 4 & 5 States Chelsea Piers Connecticut 2 4 9 B 8.350 54T 5.500 61 8.850 52T 8.725 41T 31.425 57
2018-01-26 2018 American Invitational Chelsea Piers Connecticut 12B 4 Youth 8.000 18 6.500 19 8.200 17 8.500 19 31.200 19
2018-01-11 Brestyan's Invitational Chelsea Piers Connecticut A4 4 Age 2 8.725 22T 7.300 64 8.275 46T 8.350 41T 32.650 56
2017-12-08 Big Apple Holiday Classic Chelsea Piers Connecticut 7 4 junior 8.300 50T 5.500 71T 8.400 52T 8.800 45T 31.000 67
2017-11-30 Rhode Island Invitational Chelsea Piers Connecticut BF1 4 Intermedia 8.200 8 6.100 13 7.500 13 8.150 11 29.950 13
2017-03-03 Starlight Invitational Chelsea Piers Connecticut 9 4 Division 1 7.750 18 5.000 18 8.450 15 8.575 15 29.775 17
2017-02-18 Chelsea Piers Winter Challenge Chelsea Piers Connecticut C-6 4 CH 8.050 11 5.000 21 8.350 19T 8.250 17T 29.650 21
2017-01-28 Manhattan Classic 2017 - Central Park Chelsea Piers Connecticut C2 4 JR 8.200 9 5.200 10 7.600 10 8.250 9T 29.250 10
2017-01-13 Brestyan's Invitational Chelsea Piers Connecticut 3 4 Age 1 8.000 11T 5.000 13 7.600 13 7.900 13 28.500 13
2016-12-02 Rhode Island Invitational Chelsea Piers Connecticut WF4 4 Child 7.750 11 0.000 11T 7.950 11 8.150 12 23.850 13
2016-11-18 2016 Muriel Grossfeld Invitational Chelsea Piers Connecticut 7 4 Jr A 7.250 18T 0.000 19 7.375 19 7.200 17 21.825 19
2016-04-02 2016 Connecticut Level 6 States & Level 3 State Cup Chelsea Piers Connecticut 5 3 N/A 9.025 31T 8.550 21T 8.050 37 8.650 41T 34.275 33
2016-02-13 Chelsea Piers Winter Challenge Chelsea Piers Connecticut F5 3 CH A 8.850 4T 9.000 11 8.575 8 9.000 5T 35.425 6
2016-01-28 2016 American Invitational Chelsea Piers Connecticut 1B 3 Child 8.750 14T 7.450 16 8.000 10T 8.050 12 32.250 12
2016-01-15 DGS Invitational Chelsea Piers Connecticut A12 3 6-7 yrs. 9.000 3 7.600 8 7.500 8 8.200 7T 32.300 8
Get your scores on
a t-shirt, pin, or hoodie

www.lazysuits.com